Time;durP1;ratioP1;P1;durP2;ratioP2;P2;SDS_P1;SDS_P2;PMS_P1;PMS_P2;Temp;Humidity;BMP_temperature;BMP_pressure;BME280_temperature;BME280_humidity;BME280_pressure;Samples;Min_cycle;Max_cycle;Signal;HPM_P1;HPM_P2
2022/09/04 00:02:41;;;;;;;1.58;0.88;;;8.80;99.90;;;;;;5019690;28;20502;-78
2022/09/04 00:05:22;;;;;;;1.80;0.80;;;8.80;99.90;;;;;;5023328;28;20407;-81
2022/09/04 00:08:14;;;;;;;2.42;1.15;;;8.80;99.90;;;;;;5017910;28;20939;-80
2022/09/04 00:11:00;;;;;;;1.17;0.75;;;8.70;99.90;;;;;;5026694;28;20454;-81
2022/09/04 00:13:57;;;;;;;2.43;0.90;;;8.70;99.90;;;;;;5015011;28;20403;-80
2022/09/04 00:16:46;;;;;;;1.88;0.80;;;8.70;99.90;;;;;;5019389;28;20414;-80
2022/09/04 00:19:37;;;;;;;1.63;0.80;;;8.70;99.90;;;;;;5050272;28;20496;-80
2022/09/04 00:22:15;;;;;;;1.15;0.90;;;8.70;99.90;;;;;;5017605;28;20411;-80
2022/09/04 00:24:53;;;;;;;2.40;1.00;;;8.70;99.90;;;;;;5019995;28;20409;-80
2022/09/04 00:27:26;;;;;;;1.40;1.00;;;8.70;99.90;;;;;;5019056;28;20412;-81
2022/09/04 00:30:06;;;;;;;1.55;0.98;;;8.70;99.90;;;;;;5016111;28;20415;-79
2022/09/04 00:32:40;;;;;;;2.47;0.90;;;8.70;99.90;;;;;;5011010;28;20570;-80
2022/09/04 00:35:22;;;;;;;2.40;1.00;;;8.70;99.90;;;;;;5016791;28;20405;-80
2022/09/04 00:38:05;;;;;;;1.90;0.93;;;8.70;99.90;;;;;;5016878;28;20417;-80
2022/09/04 00:40:57;;;;;;;2.87;0.90;;;8.70;99.90;;;;;;5044990;28;20438;-80
2022/09/04 00:43:28;;;;;;;1.80;0.80;;;8.70;99.90;;;;;;5011071;28;20908;-80
2022/09/04 00:46:26;;;;;;;2.57;1.00;;;8.70;99.90;;;;;;5022418;28;20920;-80
2022/09/04 00:49:02;;;;;;;1.98;1.00;;;8.60;99.90;;;;;;5018535;28;20485;-80
2022/09/04 00:52:07;;;;;;;1.63;1.00;;;8.60;99.90;;;;;;5015369;28;20399;-80
2022/09/04 00:54:49;;;;;;;1.27;0.95;;;8.50;99.90;;;;;;5024113;28;20489;-81
2022/09/04 00:57:29;;;;;;;2.13;1.15;;;8.50;99.90;;;;;;5007631;28;20477;-80
2022/09/04 01:00:14;;;;;;;3.20;1.00;;;8.50;99.90;;;;;;5011752;28;20812;-81
2022/09/04 01:03:22;;;;;;;2.63;0.90;;;8.50;99.90;;;;;;5010089;28;20755;-80
2022/09/04 01:06:25;;;;;;;3.03;1.10;;;8.50;99.90;;;;;;5007499;28;20751;-80
2022/09/04 01:09:26;;;;;;;1.42;0.93;;;8.50;99.90;;;;;;5025067;28;20410;-80
2022/09/04 01:12:06;;;;;;;2.07;1.00;;;8.50;99.90;;;;;;5007286;28;20388;-79
2022/09/04 01:14:43;;;;;;;1.75;1.00;;;8.50;99.90;;;;;;5016820;28;20402;-81
2022/09/04 01:17:26;;;;;;;1.23;0.90;;;8.50;99.90;;;;;;5016754;28;20410;-79
2022/09/04 01:20:12;;;;;;;1.40;1.00;;;8.50;99.90;;;;;;5007469;28;20495;-80
2022/09/04 01:22:54;;;;;;;2.08;1.10;;;8.50;99.90;;;;;;5017489;28;20408;-80
2022/09/04 01:25:53;;;;;;;2.42;1.08;;;8.40;99.90;;;;;;5023527;28;20405;-81
2022/09/04 01:28:46;;;;;;;1.80;1.00;;;8.40;99.90;;;;;;5020892;28;20429;-79
2022/09/04 01:31:35;;;;;;;1.38;1.08;;;8.30;99.90;;;;;;5020592;28;20399;-80
2022/09/04 01:34:27;;;;;;;1.50;1.10;;;8.10;99.90;;;;;;5022983;28;20435;-80
2022/09/04 01:37:04;;;;;;;1.23;1.00;;;8.00;99.90;;;;;;5020882;28;20498;-81
2022/09/04 01:39:34;;;;;;;2.38;1.10;;;8.00;99.90;;;;;;5020693;28;20405;-80
2022/09/04 01:42:11;;;;;;;1.85;0.98;;;8.00;99.90;;;;;;5017595;28;20831;-79
2022/09/04 01:44:39;;;;;;;1.95;1.00;;;8.10;99.90;;;;;;5014538;28;20415;-80
2022/09/04 01:47:15;;;;;;;2.53;1.20;;;8.00;99.90;;;;;;5017730;28;20886;-80
2022/09/04 01:49:52;;;;;;;1.88;1.20;;;8.00;99.90;;;;;;5024224;28;20658;-80
2022/09/04 01:52:35;;;;;;;2.00;0.93;;;8.00;99.90;;;;;;5012044;28;20401;-80
2022/09/04 01:55:23;;;;;;;1.87;1.10;;;8.00;99.90;;;;;;5014949;28;20415;-80
2022/09/04 01:58:30;;;;;;;2.20;1.10;;;7.90;99.90;;;;;;5033699;28;20466;-81
2022/09/04 02:01:20;;;;;;;1.80;1.20;;;7.90;99.90;;;;;;5015055;28;20596;-80
2022/09/04 02:03:59;;;;;;;2.00;1.30;;;7.90;99.90;;;;;;5011189;28;20458;-80
2022/09/04 02:06:41;;;;;;;2.10;1.10;;;7.90;99.90;;;;;;5018276;28;20417;-80
2022/09/04 02:09:18;;;;;;;3.28;1.27;;;7.90;99.90;;;;;;5019177;28;20736;-80
2022/09/04 02:11:52;;;;;;;2.58;1.13;;;7.90;99.90;;;;;;5019797;28;20398;-80
2022/09/04 02:15:03;;;;;;;3.33;1.20;;;7.90;99.90;;;;;;5019991;28;20533;-79
2022/09/04 02:17:36;;;;;;;2.35;0.95;;;7.80;99.90;;;;;;5020253;28;20395;-80
2022/09/04 02:20:15;;;;;;;1.60;1.10;;;7.80;99.90;;;;;;5050288;28;20909;-80
2022/09/04 02:23:09;;;;;;;2.13;1.10;;;7.80;99.90;;;;;;5010947;28;20572;-81
2022/09/04 02:26:00;;;;;;;1.80;1.10;;;7.80;99.90;;;;;;5014648;28;20405;-80
2022/09/04 02:29:12;;;;;;;3.40;1.13;;;7.70;99.90;;;;;;5017549;28;20408;-80
2022/09/04 02:32:03;;;;;;;1.70;1.10;;;7.70;99.90;;;;;;5041283;28;20480;-79
2022/09/04 02:35:11;;;;;;;2.47;1.05;;;7.70;99.90;;;;;;5022396;28;20478;-79
2022/09/04 02:38:00;;;;;;;1.83;1.10;;;7.70;99.90;;;;;;5028051;28;20406;-78
2022/09/04 02:40:53;;;;;;;2.00;1.10;;;7.60;99.90;;;;;;5034073;28;20448;-80
2022/09/04 02:43:38;;;;;;;1.52;1.02;;;7.60;99.90;;;;;;5016684;28;20479;-80
2022/09/04 02:46:12;;;;;;;2.42;1.10;;;7.60;99.90;;;;;;5016168;28;20411;-80
2022/09/04 02:49:02;;;;;;;1.30;0.90;;;7.70;99.90;;;;;;5009648;28;20410;-79
2022/09/04 02:51:55;;;;;;;2.35;1.30;;;7.60;99.90;;;;;;5035708;27;20409;-80
2022/09/04 02:54:47;;;;;;;1.92;1.40;;;7.60;99.90;;;;;;5017779;28;20410;-81
2022/09/04 02:57:32;;;;;;;2.13;1.10;;;7.60;99.90;;;;;;5019077;28;20403;-79
2022/09/04 03:00:03;;;;;;;2.90;1.20;;;7.60;99.90;;;;;;5021930;28;20412;-80
2022/09/04 03:02:37;;;;;;;2.70;1.20;;;7.60;99.90;;;;;;5016923;28;20428;-80
2022/09/04 03:05:21;;;;;;;2.42;1.38;;;7.60;99.90;;;;;;5023267;28;20411;-80
2022/09/04 03:08:15;;;;;;;2.80;1.33;;;7.60;99.90;;;;;;5024013;28;20470;-81
2022/09/04 03:11:06;;;;;;;2.50;1.30;;;7.60;99.90;;;;;;5023171;28;20410;-79
2022/09/04 03:13:46;;;;;;;3.60;1.20;;;7.60;99.90;;;;;;5012777;28;20399;-79
2022/09/04 03:16:28;;;;;;;2.15;1.02;;;7.60;99.90;;;;;;5011163;28;20406;-80
2022/09/04 03:19:18;;;;;;;1.97;1.30;;;7.60;99.90;;;;;;5019545;28;20408;-81
2022/09/04 03:22:01;;;;;;;2.58;1.10;;;7.50;99.90;;;;;;5020231;28;20403;-80
2022/09/04 03:24:36;;;;;;;2.83;1.30;;;7.50;99.90;;;;;;5016548;28;20456;-80
2022/09/04 03:27:11;;;;;;;2.50;1.25;;;7.50;99.90;;;;;;5021387;28;20419;-80
2022/09/04 03:29:45;;;;;;;2.00;1.40;;;7.50;99.90;;;;;;5020440;28;20401;-79
2022/09/04 03:32:17;;;;;;;2.20;1.10;;;7.40;99.90;;;;;;5025210;28;20403;-81
2022/09/04 03:34:56;;;;;;;2.60;1.23;;;7.40;99.90;;;;;;5011355;28;20448;-80
2022/09/04 03:37:35;;;;;;;1.85;1.15;;;7.40;99.90;;;;;;5040319;28;20407;-81
2022/09/04 03:40:12;;;;;;;1.92;1.27;;;7.40;99.90;;;;;;5015199;28;20838;-80
2022/09/04 03:42:58;;;;;;;1.60;1.15;;;7.40;99.90;;;;;;5017453;28;20496;-79
2022/09/04 03:45:38;;;;;;;2.25;1.38;;;7.40;99.90;;;;;;5015477;28;20425;-80
2022/09/04 03:48:26;;;;;;;2.87;1.43;;;7.50;99.90;;;;;;5013377;28;20436;-80
2022/09/04 03:51:01;;;;;;;3.10;1.40;;;7.40;99.90;;;;;;5018728;28;20403;-80
2022/09/04 03:53:40;;;;;;;1.50;1.08;;;7.30;99.90;;;;;;5018769;28;20870;-80
2022/09/04 03:56:19;;;;;;;2.13;1.20;;;7.30;99.90;;;;;;5018888;28;20493;-80
2022/09/04 03:59:09;;;;;;;3.10;1.10;;;7.30;99.90;;;;;;5015756;28;20885;-80
2022/09/04 04:02:02;;;;;;;1.90;1.25;;;7.30;99.90;;;;;;5013512;28;20397;-81
2022/09/04 04:04:35;;;;;;;2.90;1.25;;;7.40;99.90;;;;;;5019171;28;20422;-80
2022/09/04 04:07:23;;;;;;;2.40;1.30;;;7.40;99.90;;;;;;5015352;28;20887;-80
2022/09/04 04:10:32;;;;;;;2.40;1.30;;;7.40;99.90;;;;;;5021439;28;20386;-80
2022/09/04 04:13:35;;;;;;;1.77;1.20;;;7.30;99.90;;;;;;5016841;28;20401;-80
2022/09/04 04:16:12;;;;;;;2.28;1.25;;;7.40;99.90;;;;;;5016539;28;20478;-79
2022/09/04 04:19:09;;;;;;;1.45;1.08;;;7.40;99.90;;;;;;5024830;28;20403;-80
2022/09/04 04:21:57;;;;;;;2.63;1.30;;;7.40;99.90;;;;;;5013072;28;20770;-80
2022/09/04 04:24:37;;;;;;;1.70;1.10;;;7.40;99.90;;;;;;5018382;28;20897;-80
2022/09/04 04:27:24;;;;;;;1.85;1.17;;;7.40;99.90;;;;;;5012983;28;20825;-80
2022/09/04 04:30:08;;;;;;;1.90;1.25;;;7.40;99.90;;;;;;5010069;28;20406;-80
2022/09/04 04:32:44;;;;;;;2.40;1.20;;;7.40;99.90;;;;;;5018866;28;20489;-80
2022/09/04 04:35:44;;;;;;;1.75;1.20;;;7.40;99.90;;;;;;5016276;28;20397;-81
2022/09/04 04:38:39;;;;;;;2.70;1.35;;;7.40;99.90;;;;;;5013801;28;20401;-80
2022/09/04 04:41:28;;;;;;;4.60;1.52;;;7.30;99.90;;;;;;5009578;28;20472;-80
2022/09/04 04:45:48;;;;;;;2.50;1.20;;;7.30;99.90;;;;;;5009641;28;20401;-80
2022/09/04 04:47:35;;;;;;;2.80;1.20;;;7.30;99.90;;;;;;5017216;28;20450;-80
2022/09/04 04:50:02;;;;;;;2.83;1.30;;;7.30;99.90;;;;;;5031815;28;20429;-81
2022/09/04 04:52:36;;;;;;;1.73;1.10;;;7.20;99.90;;;;;;5020658;28;20482;-81
2022/09/04 04:55:29;;;;;;;2.08;1.40;;;7.30;99.90;;;;;;5012065;28;20409;-79
2022/09/04 04:58:10;;;;;;;2.30;1.20;;;7.30;99.90;;;;;;5007837;28;20987;-80
2022/09/04 05:00:52;;;;;;;2.28;1.13;;;7.30;99.90;;;;;;5014058;28;20402;-80
2022/09/04 05:03:41;;;;;;;4.50;1.30;;;7.30;99.90;;;;;;5045007;28;20434;-80
2022/09/04 05:06:16;;;;;;;1.85;1.20;;;7.30;99.90;;;;;;5013504;28;20500;-78
2022/09/04 05:09:21;;;;;;;2.22;1.13;;;7.30;99.90;;;;;;5014618;28;20405;-81
2022/09/04 05:12:15;;;;;;;1.75;1.20;;;7.30;99.90;;;;;;5011792;28;20398;-80
2022/09/04 05:14:56;;;;;;;2.35;1.40;;;7.30;99.90;;;;;;5020057;28;20471;-81
2022/09/04 05:17:48;;;;;;;2.05;1.30;;;7.30;99.90;;;;;;5014400;28;20521;-80
2022/09/04 05:20:42;;;;;;;2.25;1.30;;;7.40;99.90;;;;;;5014661;28;22406;-81
2022/09/04 05:23:24;;;;;;;2.10;1.40;;;7.40;99.90;;;;;;5016209;28;20413;-80
2022/09/04 05:26:25;;;;;;;2.58;1.30;;;7.40;99.90;;;;;;5010135;28;20430;-80
2022/09/04 05:28:56;;;;;;;1.98;1.30;;;7.30;99.90;;;;;;5014178;28;20429;-80
2022/09/04 05:31:59;;;;;;;2.97;1.33;;;7.40;99.90;;;;;;5013579;28;20399;-80
2022/09/04 05:34:48;;;;;;;3.10;1.40;;;7.40;99.90;;;;;;5028427;28;20411;-79
2022/09/04 05:37:27;;;;;;;2.30;1.25;;;7.40;99.90;;;;;;5006207;28;20532;-79
2022/09/04 05:39:58;;;;;;;2.05;1.20;;;7.30;99.90;;;;;;5018010;28;20936;-79
2022/09/04 05:42:51;;;;;;;2.17;1.50;;;7.40;99.90;;;;;;5013842;28;20916;-81
2022/09/04 05:45:49;;;;;;;2.28;1.50;;;7.40;99.90;;;;;;5014191;28;20812;-79
2022/09/04 05:48:43;;;;;;;3.30;1.35;;;7.50;99.90;;;;;;5016508;28;20486;-80
2022/09/04 05:51:45;;;;;;;2.53;1.30;;;7.40;99.90;;;;;;5017016;28;20444;-80
2022/09/04 05:54:18;;;;;;;3.80;1.70;;;7.50;99.90;;;;;;5010992;28;20487;-80
2022/09/04 05:57:01;;;;;;;2.83;1.50;;;7.50;99.90;;;;;;5012998;28;20401;-80
2022/09/04 06:00:01;;;;;;;2.72;1.55;;;7.50;99.90;;;;;;5014814;28;20454;-80
2022/09/04 06:02:38;;;;;;;3.33;1.60;;;7.60;99.90;;;;;;5018163;28;20398;-81
2022/09/04 06:05:18;;;;;;;2.90;1.42;;;7.60;99.90;;;;;;5016629;28;20439;-80
2022/09/04 06:08:13;;;;;;;2.50;1.60;;;7.70;99.90;;;;;;5021614;28;20502;-79
2022/09/04 06:11:02;;;;;;;2.25;1.55;;;7.70;99.90;;;;;;5026234;28;20447;-84
2022/09/04 06:13:38;;;;;;;3.78;2.00;;;7.70;99.90;;;;;;5025354;28;20400;-85
2022/09/04 06:16:40;;;;;;;3.17;1.67;;;7.80;99.90;;;;;;5026799;28;20960;-84
2022/09/04 06:19:26;;;;;;;4.18;1.63;;;7.90;99.90;;;;;;5016582;28;20465;-84
2022/09/04 06:22:18;;;;;;;2.85;1.90;;;8.00;99.90;;;;;;5029475;28;20475;-77
2022/09/04 06:25:06;;;;;;;2.50;1.60;;;8.00;99.90;;;;;;5038504;28;20483;-77
2022/09/04 06:27:59;;;;;;;2.63;1.60;;;8.10;99.90;;;;;;5033059;28;20411;-77
2022/09/04 06:30:56;;;;;;;4.25;2.00;;;8.10;99.90;;;;;;5028839;28;20405;-77
2022/09/04 06:33:51;;;;;;;2.80;1.40;;;8.20;99.90;;;;;;5030596;28;20397;-77
2022/09/04 06:36:24;;;;;;;2.37;1.23;;;8.20;99.90;;;;;;5033596;28;20400;-77
2022/09/04 06:39:11;;;;;;;2.87;1.80;;;8.20;99.90;;;;;;5036667;28;20396;-77
2022/09/04 06:41:59;;;;;;;2.90;1.30;;;8.30;99.90;;;;;;5028080;28;20490;-77
2022/09/04 06:44:40;;;;;;;2.10;1.10;;;8.40;99.90;;;;;;5031521;28;20410;-77
2022/09/04 06:47:34;;;;;;;2.03;1.30;;;8.40;99.90;;;;;;5032844;28;20414;-77
2022/09/04 06:50:15;;;;;;;2.25;1.10;;;8.50;99.90;;;;;;5026052;28;20474;-77
2022/09/04 06:52:48;;;;;;;1.63;1.00;;;8.50;99.90;;;;;;5026312;28;20403;-77
2022/09/04 06:55:36;;;;;;;1.85;1.08;;;8.50;99.90;;;;;;5029357;28;20405;-78
2022/09/04 06:58:05;;;;;;;2.40;0.90;;;8.60;99.90;;;;;;5029481;27;20410;-85
2022/09/04 07:00:57;;;;;;;2.30;1.20;;;8.70;99.90;;;;;;5027274;28;20427;-77
2022/09/04 07:04:00;;;;;;;4.60;2.57;;;8.80;99.90;;;;;;5030630;28;20433;-78
2022/09/04 07:06:51;;;;;;;3.67;1.90;;;8.80;99.90;;;;;;5033615;28;20417;-77
2022/09/04 07:09:26;;;;;;;3.38;1.50;;;8.90;99.90;;;;;;5034301;28;20434;-77
2022/09/04 07:12:12;;;;;;;2.03;1.13;;;8.90;99.90;;;;;;5027270;28;20413;-77
2022/09/04 07:15:08;;;;;;;1.37;0.90;;;8.90;99.90;;;;;;5037832;27;20437;-77
2022/09/04 07:18:04;;;;;;;1.42;0.90;;;9.10;99.90;;;;;;5037866;28;20406;-77
2022/09/04 07:21:17;;;;;;;1.00;0.77;;;9.00;99.90;;;;;;5040320;28;20419;-77
2022/09/04 07:24:31;;;;;;;1.30;0.80;;;9.10;99.90;;;;;;5038584;28;20409;-77
2022/09/04 07:27:09;;;;;;;1.23;0.70;;;9.10;99.90;;;;;;5053444;28;20412;-78
2022/09/04 07:30:11;;;;;;;1.30;0.82;;;9.10;99.90;;;;;;5031262;28;20407;-78
2022/09/04 07:32:56;;;;;;;0.93;0.65;;;9.30;99.90;;;;;;5045099;28;20454;-77
2022/09/04 07:35:35;;;;;;;1.27;1.00;;;9.30;99.90;;;;;;5032371;27;20410;-78
2022/09/04 07:38:36;;;;;;;1.65;0.80;;;9.40;99.90;;;;;;5046644;27;20405;-77
2022/09/04 07:41:18;;;;;;;2.33;0.70;;;9.40;99.90;;;;;;5031526;27;20415;-77
2022/09/04 07:43:53;;;;;;;1.27;0.80;;;9.40;99.90;;;;;;5029785;28;20395;-78
2022/09/04 07:46:33;;;;;;;1.07;0.70;;;9.40;99.90;;;;;;5028636;28;20764;-86
2022/09/04 07:49:16;;;;;;;3.30;0.90;;;9.60;99.90;;;;;;5021250;28;20936;-85
2022/09/04 07:51:54;;;;;;;1.00;0.70;;;9.70;99.90;;;;;;5016473;28;20403;-84
2022/09/04 07:54:47;;;;;;;1.48;0.70;;;9.70;99.90;;;;;;5025126;28;20424;-86
2022/09/04 07:58:01;;;;;;;1.10;0.80;;;9.70;99.90;;;;;;5021741;28;20399;-82
2022/09/04 08:00:43;;;;;;;0.73;0.60;;;9.80;99.90;;;;;;5028701;28;20412;-85
2022/09/04 08:03:40;;;;;;;1.80;0.80;;;9.90;99.90;;;;;;5014815;28;20472;-86
2022/09/04 08:06:29;;;;;;;0.80;0.70;;;10.10;99.90;;;;;;5020059;28;20401;-86
2022/09/04 08:09:47;;;;;;;1.20;0.80;;;10.00;99.90;;;;;;5018585;28;20394;-85
2022/09/04 08:12:52;;;;;;;2.10;0.80;;;10.00;99.90;;;;;;5035443;28;20414;-85
2022/09/04 08:15:45;;;;;;;6.05;3.78;;;10.10;99.90;;;;;;5014583;28;20402;-82
2022/09/04 08:18:20;;;;;;;2.35;1.10;;;10.10;99.90;;;;;;5014841;28;20475;-82
2022/09/04 08:20:57;;;;;;;1.43;0.90;;;10.10;99.90;;;;;;5023825;28;20768;-86
2022/09/04 08:23:37;;;;;;;0.90;0.70;;;10.30;99.90;;;;;;5017629;28;20409;-85
2022/09/04 08:26:24;;;;;;;1.25;0.82;;;10.30;99.90;;;;;;5020867;28;20879;-83
2022/09/04 08:29:11;;;;;;;1.08;0.70;;;10.50;99.90;;;;;;5020639;28;20490;-83
2022/09/04 08:31:53;;;;;;;1.05;0.70;;;10.50;99.90;;;;;;5022423;28;20426;-83
2022/09/04 08:34:32;;;;;;;1.02;0.70;;;10.50;99.90;;;;;;5026655;28;20878;-83
2022/09/04 08:37:15;;;;;;;1.20;0.63;;;10.50;99.90;;;;;;5018818;28;20406;-84
2022/09/04 08:40:01;;;;;;;1.17;0.70;;;10.60;99.90;;;;;;5026746;28;20454;-84
2022/09/04 08:42:50;;;;;;;1.30;0.70;;;10.70;99.90;;;;;;5017778;28;20400;-83
2022/09/04 08:45:31;;;;;;;7.13;1.15;;;10.80;99.90;;;;;;5017802;28;20394;-83
2022/09/04 08:48:47;;;;;;;11.00;1.50;;;10.70;99.90;;;;;;5011614;28;20411;-85
2022/09/04 08:51:50;;;;;;;4.97;0.90;;;10.80;99.90;;;;;;5017507;28;20977;-84
2022/09/04 08:55:01;;;;;;;0.93;0.73;;;10.80;99.90;;;;;;5058425;28;20406;-84
2022/09/04 08:57:55;;;;;;;0.95;0.60;;;10.80;99.90;;;;;;5050251;27;20415;-83
2022/09/04 09:00:50;;;;;;;1.10;0.80;;;10.90;99.90;;;;;;5032966;28;20502;-83
2022/09/04 09:03:30;;;;;;;12.03;1.17;;;10.90;99.90;;;;;;5013030;28;20442;-83
2022/09/04 09:06:31;;;;;;;1.00;0.60;;;10.80;99.90;;;;;;5018769;28;20411;-83
2022/09/04 09:09:22;;;;;;;0.70;0.60;;;10.80;99.90;;;;;;5049278;28;20410;-83
2022/09/04 09:11:50;;;;;;;1.38;0.60;;;10.80;99.90;;;;;;5015510;28;20465;-83
2022/09/04 09:14:44;;;;;;;0.83;0.77;;;11.00;99.90;;;;;;5014268;28;20407;-83
2022/09/04 09:17:15;;;;;;;3.20;0.80;;;11.20;99.90;;;;;;5016922;28;20397;-82
2022/09/04 09:20:06;;;;;;;8.20;0.93;;;11.30;99.90;;;;;;5014900;28;20765;-83
2022/09/04 09:22:55;;;;;;;1.30;0.70;;;11.20;99.90;;;;;;5022319;28;20402;-83
2022/09/04 09:25:52;;;;;;;1.10;0.80;;;11.30;99.90;;;;;;5034471;28;20502;-83
2022/09/04 09:28:44;;;;;;;1.35;0.80;;;11.40;99.90;;;;;;5023718;28;20442;-83
2022/09/04 09:31:27;;;;;;;1.50;0.70;;;11.60;99.90;;;;;;5015449;28;20431;-83
2022/09/04 09:34:00;;;;;;;2.20;0.70;;;11.60;99.90;;;;;;5015836;28;20393;-83
2022/09/04 09:36:38;;;;;;;1.50;0.65;;;11.70;99.90;;;;;;5014345;28;20401;-82
2022/09/04 09:39:41;;;;;;;0.70;0.60;;;11.60;99.90;;;;;;5017703;28;20401;-83
2022/09/04 09:42:53;;;;;;;0.90;0.60;;;11.70;99.90;;;;;;5034804;28;20428;-83
2022/09/04 09:45:47;;;;;;;1.80;0.80;;;11.60;99.90;;;;;;5017508;28;20906;-82
2022/09/04 09:48:34;;;;;;;1.20;0.60;;;11.50;99.90;;;;;;5031459;28;20969;-83
2022/09/04 09:51:42;;;;;;;1.02;0.60;;;11.40;99.90;;;;;;5021170;28;20839;-81
2022/09/04 09:54:28;;;;;;;1.35;0.60;;;11.40;99.90;;;;;;5031010;27;20880;-84
2022/09/04 09:57:20;;;;;;;0.90;0.57;;;11.30;99.90;;;;;;5010713;28;20444;-83
2022/09/04 10:00:14;;;;;;;1.30;0.70;;;11.40;99.90;;;;;;5017431;28;20912;-81
2022/09/04 10:03:01;;;;;;;1.00;0.60;;;11.40;99.90;;;;;;5022604;28;20403;-83
2022/09/04 10:05:51;;;;;;;1.45;0.70;;;11.30;99.90;;;;;;5018171;28;20406;-84
2022/09/04 10:08:52;;;;;;;1.63;0.70;;;11.30;99.90;;;;;;5015545;28;20494;-84
2022/09/04 10:12:07;;;;;;;1.20;0.80;;;11.30;99.90;;;;;;5010759;28;20399;-83
2022/09/04 10:14:59;;;;;;;1.00;0.60;;;11.30;99.90;;;;;;5025038;28;20478;-82
2022/09/04 10:18:04;;;;;;;1.20;0.65;;;11.40;99.90;;;;;;5023253;27;20437;-80
2022/09/04 10:21:09;;;;;;;1.40;0.70;;;11.40;99.90;;;;;;5018428;28;20761;-84
2022/09/04 10:24:05;;;;;;;0.90;0.60;;;11.40;99.90;;;;;;5029458;28;20419;-84
2022/09/04 10:26:48;;;;;;;1.40;0.80;;;11.50;99.90;;;;;;5025809;28;20411;-81
2022/09/04 10:29:41;;;;;;;1.00;0.73;;;11.50;99.90;;;;;;5025538;28;20413;-83
2022/09/04 10:32:30;;;;;;;3.00;0.70;;;11.60;99.90;;;;;;5020165;28;20403;-84
2022/09/04 10:35:31;;;;;;;0.93;0.60;;;11.80;99.90;;;;;;5028563;28;20966;-84
2022/09/04 10:38:14;;;;;;;1.33;0.70;;;12.20;99.90;;;;;;5010333;28;20831;-82
2022/09/04 10:41:16;;;;;;;0.90;0.65;;;12.20;99.90;;;;;;5018560;28;20883;-82
2022/09/04 10:44:16;;;;;;;0.85;0.50;;;12.30;99.90;;;;;;5020309;28;20500;-83
2022/09/04 10:46:57;;;;;;;0.90;0.60;;;12.60;99.90;;;;;;5018210;28;20411;-83
2022/09/04 10:49:51;;;;;;;0.90;0.60;;;12.70;99.90;;;;;;5019000;28;20447;-81
2022/09/04 10:52:53;;;;;;;1.00;0.60;;;12.80;99.90;;;;;;5019712;28;20436;-84
2022/09/04 10:55:46;;;;;;;0.75;0.60;;;12.80;99.90;;;;;;5019956;28;20405;-83
2022/09/04 10:59:01;;;;;;;1.27;0.60;;;13.10;99.90;;;;;;5020374;28;20405;-83
2022/09/04 11:01:53;;;;;;;0.97;0.60;;;13.00;99.90;;;;;;5067863;28;20413;-81
2022/09/04 11:04:38;;;;;;;1.08;0.57;;;12.90;99.90;;;;;;5023068;28;20447;-81
2022/09/04 11:07:27;;;;;;;1.80;0.60;;;12.70;99.90;;;;;;5023728;28;20407;-83
2022/09/04 11:10:25;;;;;;;0.87;0.70;;;12.60;99.90;;;;;;5018617;28;20448;-83
2022/09/04 11:13:29;;;;;;;0.82;0.60;;;12.70;99.90;;;;;;5014811;28;20489;-83
2022/09/04 11:16:08;;;;;;;0.70;0.60;;;12.90;99.90;;;;;;5015301;27;21441;-83
2022/09/04 11:18:58;;;;;;;1.60;0.65;;;12.80;99.90;;;;;;5020964;28;20900;-84
2022/09/04 11:21:57;;;;;;;0.60;0.60;;;12.70;99.90;;;;;;5017357;28;20397;-83
2022/09/04 11:24:47;;;;;;;1.20;0.60;;;12.60;99.90;;;;;;5017950;28;20498;-82
2022/09/04 11:27:29;;;;;;;2.20;0.70;;;12.60;99.90;;;;;;5024997;28;20955;-84
2022/09/04 11:30:16;;;;;;;2.65;0.65;;;12.60;99.90;;;;;;5024483;28;20399;-83
2022/09/04 11:33:14;;;;;;;1.10;0.60;;;12.70;99.90;;;;;;5014428;28;20407;-83
2022/09/04 11:35:58;;;;;;;1.35;0.63;;;13.10;99.90;;;;;;5014238;28;20429;-83
2022/09/04 11:38:58;;;;;;;1.27;0.60;;;13.30;99.90;;;;;;5028168;28;20403;-83
2022/09/04 11:41:49;;;;;;;1.67;0.70;;;13.60;99.90;;;;;;5047673;28;20399;-83
2022/09/04 11:44:17;;;;;;;0.85;0.70;;;13.80;99.90;;;;;;5017309;27;20422;-82
2022/09/04 11:46:53;;;;;;;1.13;0.70;;;13.80;99.90;;;;;;5013274;28;20399;-84
2022/09/04 11:49:39;;;;;;;0.75;0.65;;;13.90;99.90;;;;;;5011614;28;20601;-83
2022/09/04 11:52:30;;;;;;;1.88;0.60;;;14.20;99.90;;;;;;5018716;28;20487;-84
2022/09/04 11:55:35;;;;;;;1.17;0.70;;;14.20;99.90;;;;;;5020075;27;20460;-82
2022/09/04 11:58:12;;;;;;;0.90;0.63;;;14.10;99.90;;;;;;5020313;28;20411;-83
2022/09/04 12:00:58;;;;;;;1.23;0.52;;;14.20;99.90;;;;;;5022328;28;20879;-84
2022/09/04 12:04:07;;;;;;;2.35;0.60;;;14.40;99.90;;;;;;5029242;28;20435;-84
2022/09/04 12:07:07;;;;;;;0.73;0.60;;;14.80;99.90;;;;;;5032988;28;20419;-83
2022/09/04 12:10:04;;;;;;;1.30;0.60;;;14.80;99.90;;;;;;5017967;28;20404;-83
2022/09/04 12:13:00;;;;;;;2.65;0.70;;;14.80;99.90;;;;;;5024080;28;20398;-82
2022/09/04 12:15:53;;;;;;;1.10;0.60;;;14.70;99.90;;;;;;5015823;28;20406;-83
2022/09/04 12:18:40;;;;;;;0.73;0.55;;;14.30;99.90;;;;;;5022548;28;20462;-84
2022/09/04 12:21:36;;;;;;;0.90;0.55;;;14.10;99.90;;;;;;5014637;28;20426;-82
2022/09/04 12:24:21;;;;;;;1.15;0.60;;;14.00;99.90;;;;;;5037703;28;20399;-81
2022/09/04 12:27:20;;;;;;;6.97;0.88;;;13.80;99.90;;;;;;5014149;28;20893;-82
2022/09/04 12:29:49;;;;;;;2.15;0.60;;;13.80;99.90;;;;;;5021297;28;20413;-83
2022/09/04 12:32:44;;;;;;;1.48;0.60;;;13.50;99.90;;;;;;5052580;28;20402;-82
2022/09/04 12:35:40;;;;;;;0.93;0.60;;;13.30;99.90;;;;;;5016927;28;20411;-84
2022/09/04 12:38:34;;;;;;;0.98;0.60;;;13.10;99.90;;;;;;5010509;28;20411;-82
2022/09/04 12:41:16;;;;;;;0.50;0.50;;;13.00;99.90;;;;;;5021230;28;20407;-85
2022/09/04 12:44:05;;;;;;;1.45;0.50;;;12.90;99.90;;;;;;5022027;28;20852;-84
2022/09/04 12:47:00;;;;;;;0.50;0.40;;;12.80;99.90;;;;;;5019190;28;20401;-83
2022/09/04 12:49:47;;;;;;;1.20;0.40;;;12.90;99.90;;;;;;5021432;28;20407;-83
2022/09/04 12:52:37;;;;;;;1.50;0.60;;;12.80;99.90;;;;;;5011051;28;20456;-82
2022/09/04 12:55:21;;;;;;;1.33;0.52;;;12.80;99.90;;;;;;5012401;28;20560;-83
2022/09/04 12:58:03;;;;;;;0.57;0.50;;;12.80;99.90;;;;;;5016012;28;20814;-83
2022/09/04 13:00:46;;;;;;;0.93;0.68;;;12.70;99.90;;;;;;5010759;28;20499;-84
2022/09/04 13:03:54;;;;;;;1.85;0.70;;;12.70;99.90;;;;;;5048040;28;20401;-84
2022/09/04 13:06:42;;;;;;;1.35;0.43;;;12.70;99.90;;;;;;5011038;28;20460;-81
2022/09/04 13:09:37;;;;;;;1.10;0.60;;;12.70;99.90;;;;;;5043721;28;20415;-82
2022/09/04 13:12:13;;;;;;;0.80;0.50;;;12.60;99.90;;;;;;5018681;28;20489;-82
2022/09/04 13:15:02;;;;;;;0.90;0.50;;;12.70;99.90;;;;;;5017776;28;20483;-82
2022/09/04 13:18:12;;;;;;;0.80;0.50;;;12.70;99.90;;;;;;5017428;28;20960;-83
2022/09/04 13:20:58;;;;;;;1.17;0.50;;;12.70;99.90;;;;;;5028398;28;20420;-83
2022/09/04 13:23:39;;;;;;;0.80;0.50;;;12.80;99.90;;;;;;5025896;28;20955;-83
2022/09/04 13:26:37;;;;;;;0.95;0.40;;;12.80;99.90;;;;;;5025484;27;20401;-82
2022/09/04 13:29:24;;;;;;;0.40;0.40;;;12.90;99.90;;;;;;5024911;28;20433;-81
2022/09/04 13:32:22;;;;;;;0.70;0.43;;;12.90;99.90;;;;;;5032854;28;20387;-82
2022/09/04 13:35:10;;;;;;;0.40;0.40;;;13.00;99.90;;;;;;5023951;28;20403;-82
2022/09/04 13:38:20;;;;;;;0.50;0.50;;;13.10;99.90;;;;;;5027669;28;20401;-83
2022/09/04 13:41:23;;;;;;;1.17;0.47;;;13.40;99.90;;;;;;5018947;28;20463;-82
2022/09/04 13:44:11;;;;;;;0.65;0.40;;;13.60;99.90;;;;;;5023803;28;20397;-82
2022/09/04 13:46:49;;;;;;;2.10;0.47;;;13.60;99.90;;;;;;5019657;28;20463;-81
2022/09/04 13:49:27;;;;;;;0.40;0.40;;;13.70;99.90;;;;;;5028241;27;20413;-80
2022/09/04 13:52:08;;;;;;;1.00;0.60;;;13.80;99.90;;;;;;5024744;28;20398;-82
2022/09/04 13:54:45;;;;;;;0.50;0.40;;;14.00;99.90;;;;;;5050192;28;20399;-82
2022/09/04 13:57:26;;;;;;;0.40;0.30;;;13.90;99.90;;;;;;5022212;28;21101;-82
2022/09/04 13:59:59;;;;;;;0.50;0.40;;;13.90;99.90;;;;;;5038932;28;20418;-81
2022/09/04 14:02:29;;;;;;;0.40;0.40;;;13.80;99.90;;;;;;5018578;28;20509;-82
2022/09/04 14:05:09;;;;;;;0.60;0.40;;;13.70;99.90;;;;;;5022541;28;20460;-83
2022/09/04 14:07:40;;;;;;;0.38;0.38;;;13.70;99.90;;;;;;5020003;28;20459;-84
2022/09/04 14:10:17;;;;;;;11.88;0.85;;;13.70;99.90;;;;;;5014481;28;20445;-84
2022/09/04 14:13:01;;;;;;;1.08;0.50;;;13.60;99.90;;;;;;5023646;28;20410;-83
2022/09/04 14:16:02;;;;;;;1.30;0.50;;;13.60;99.90;;;;;;5026127;28;20483;-82
2022/09/04 14:18:51;;;;;;;1.20;0.50;;;13.50;99.90;;;;;;5020261;27;20401;-82
2022/09/04 14:21:37;;;;;;;0.40;0.40;;;13.40;99.90;;;;;;5014320;28;20493;-82
2022/09/04 14:24:12;;;;;;;0.40;0.40;;;13.40;99.90;;;;;;5021165;28;20418;-82
2022/09/04 14:27:06;;;;;;;1.20;0.43;;;13.40;99.90;;;;;;5018968;28;20443;-83
2022/09/04 14:30:21;;;;;;;0.60;0.40;;;13.40;99.90;;;;;;5030069;28;20412;-82
2022/09/04 14:33:26;;;;;;;0.80;0.40;;;13.30;99.90;;;;;;5070533;28;20434;-82
2022/09/04 14:36:22;;;;;;;0.90;0.50;;;13.20;99.90;;;;;;5032455;28;20828;-83
2022/09/04 14:39:19;;;;;;;0.50;0.40;;;13.20;99.90;;;;;;5017730;28;20419;-82
2022/09/04 14:42:30;;;;;;;0.65;0.40;;;13.20;99.90;;;;;;5014321;28;20399;-79
2022/09/04 14:45:29;;;;;;;0.70;0.50;;;13.10;99.90;;;;;;5020857;28;20444;-82